sensor_id;sensor_type;location;lat;lon;timestamp;temperature;humidity
13638;DHT22;6892;50.916;4.356;2022-07-10T00:01:48;13.70;97.80
13638;DHT22;6892;50.916;4.356;2022-07-10T00:04:15;13.70;99.90
13638;DHT22;6892;50.916;4.356;2022-07-10T00:06:42;13.60;99.90
13638;DHT22;6892;50.916;4.356;2022-07-10T00:09:12;13.60;99.90
13638;DHT22;6892;50.916;4.356;2022-07-10T00:11:40;13.60;99.90
13638;DHT22;6892;50.916;4.356;2022-07-10T00:14:07;13.60;99.90
13638;DHT22;6892;50.916;4.356;2022-07-10T00:16:34;13.70;99.90
13638;DHT22;6892;50.916;4.356;2022-07-10T00:19:01;13.70;99.90
13638;DHT22;6892;50.916;4.356;2022-07-10T00:21:28;13.60;99.90
13638;DHT22;6892;50.916;4.356;2022-07-10T00:23:55;13.60;99.90
13638;DHT22;6892;50.916;4.356;2022-07-10T00:26:22;13.60;99.90
13638;DHT22;6892;50.916;4.356;2022-07-10T00:28:50;13.50;99.90
13638;DHT22;6892;50.916;4.356;2022-07-10T00:31:17;13.50;99.90
13638;DHT22;6892;50.916;4.356;2022-07-10T00:33:43;13.50;99.90
13638;DHT22;6892;50.916;4.356;2022-07-10T00:36:10;13.50;99.90
13638;DHT22;6892;50.916;4.356;2022-07-10T00:38:37;13.50;99.90
13638;DHT22;6892;50.916;4.356;2022-07-10T00:41:04;13.50;99.90
13638;DHT22;6892;50.916;4.356;2022-07-10T00:43:31;13.40;99.90
13638;DHT22;6892;50.916;4.356;2022-07-10T00:46:18;13.40;99.90
13638;DHT22;6892;50.916;4.356;2022-07-10T00:48:45;13.40;99.90
13638;DHT22;6892;50.916;4.356;2022-07-10T00:51:12;13.30;99.90
13638;DHT22;6892;50.916;4.356;2022-07-10T00:53:39;13.30;99.90
13638;DHT22;6892;50.916;4.356;2022-07-10T00:56:06;13.30;99.90
13638;DHT22;6892;50.916;4.356;2022-07-10T00:58:33;13.30;99.90
13638;DHT22;6892;50.916;4.356;2022-07-10T01:01:00;13.20;99.90
13638;DHT22;6892;50.916;4.356;2022-07-10T01:03:29;13.20;99.90
13638;DHT22;6892;50.916;4.356;2022-07-10T01:05:55;13.20;99.90
13638;DHT22;6892;50.916;4.356;2022-07-10T01:08:22;13.20;99.90
13638;DHT22;6892;50.916;4.356;2022-07-10T01:10:49;13.10;99.90
13638;DHT22;6892;50.916;4.356;2022-07-10T01:13:16;13.10;99.90
13638;DHT22;6892;50.916;4.356;2022-07-10T01:15:43;13.10;99.90
13638;DHT22;6892;50.916;4.356;2022-07-10T01:18:10;13.00;99.90
13638;DHT22;6892;50.916;4.356;2022-07-10T01:20:38;13.00;99.90
13638;DHT22;6892;50.916;4.356;2022-07-10T01:23:06;13.00;99.90
13638;DHT22;6892;50.916;4.356;2022-07-10T01:25:33;12.90;99.90
13638;DHT22;6892;50.916;4.356;2022-07-10T01:28:00;12.90;99.90
13638;DHT22;6892;50.916;4.356;2022-07-10T01:30:26;12.90;99.90
13638;DHT22;6892;50.916;4.356;2022-07-10T01:32:53;12.90;99.90
13638;DHT22;6892;50.916;4.356;2022-07-10T01:35:20;12.80;99.90
13638;DHT22;6892;50.916;4.356;2022-07-10T01:37:47;12.80;99.90
13638;DHT22;6892;50.916;4.356;2022-07-10T01:40:15;12.80;99.90
13638;DHT22;6892;50.916;4.356;2022-07-10T01:42:42;12.90;99.90
13638;DHT22;6892;50.916;4.356;2022-07-10T01:45:09;12.90;99.90
13638;DHT22;6892;50.916;4.356;2022-07-10T01:47:36;12.90;99.90
13638;DHT22;6892;50.916;4.356;2022-07-10T01:50:03;12.90;99.90
13638;DHT22;6892;50.916;4.356;2022-07-10T01:52:30;12.80;99.90
13638;DHT22;6892;50.916;4.356;2022-07-10T01:54:57;12.80;99.90
13638;DHT22;6892;50.916;4.356;2022-07-10T01:57:25;12.80;99.90
13638;DHT22;6892;50.916;4.356;2022-07-10T01:59:52;12.80;99.90
13638;DHT22;6892;50.916;4.356;2022-07-10T02:02:18;12.80;99.90
13638;DHT22;6892;50.916;4.356;2022-07-10T02:04:45;12.70;99.90
13638;DHT22;6892;50.916;4.356;2022-07-10T02:07:11;12.70;99.90
13638;DHT22;6892;50.916;4.356;2022-07-10T02:09:39;12.70;99.90
13638;DHT22;6892;50.916;4.356;2022-07-10T02:12:06;12.70;99.90
13638;DHT22;6892;50.916;4.356;2022-07-10T02:14:34;12.80;99.90
13638;DHT22;6892;50.916;4.356;2022-07-10T02:17:01;12.70;99.90
13638;DHT22;6892;50.916;4.356;2022-07-10T02:19:28;12.80;99.90
13638;DHT22;6892;50.916;4.356;2022-07-10T02:21:55;12.70;99.90
13638;DHT22;6892;50.916;4.356;2022-07-10T02:24:21;12.70;99.90
13638;DHT22;6892;50.916;4.356;2022-07-10T02:26:48;12.70;99.90
13638;DHT22;6892;50.916;4.356;2022-07-10T02:29:15;12.60;99.90
13638;DHT22;6892;50.916;4.356;2022-07-10T02:31:44;12.60;99.90
13638;DHT22;6892;50.916;4.356;2022-07-10T02:34:11;12.60;99.90
13638;DHT22;6892;50.916;4.356;2022-07-10T02:36:38;12.60;99.90
13638;DHT22;6892;50.916;4.356;2022-07-10T02:39:05;12.50;99.90
13638;DHT22;6892;50.916;4.356;2022-07-10T02:41:32;12.50;99.90
13638;DHT22;6892;50.916;4.356;2022-07-10T02:44:00;12.40;99.90
13638;DHT22;6892;50.916;4.356;2022-07-10T02:46:26;12.40;99.90
13638;DHT22;6892;50.916;4.356;2022-07-10T02:48:55;12.40;99.90
13638;DHT22;6892;50.916;4.356;2022-07-10T02:51:22;12.40;99.90
13638;DHT22;6892;50.916;4.356;2022-07-10T02:53:49;12.40;99.90
13638;DHT22;6892;50.916;4.356;2022-07-10T02:56:15;12.40;99.90
13638;DHT22;6892;50.916;4.356;2022-07-10T02:58:42;12.40;99.90
13638;DHT22;6892;50.916;4.356;2022-07-10T03:01:09;12.40;99.90
13638;DHT22;6892;50.916;4.356;2022-07-10T03:03:36;12.30;99.90
13638;DHT22;6892;50.916;4.356;2022-07-10T03:06:04;12.30;99.90
13638;DHT22;6892;50.916;4.356;2022-07-10T03:08:31;12.30;99.90
13638;DHT22;6892;50.916;4.356;2022-07-10T03:10:57;12.30;99.90
13638;DHT22;6892;50.916;4.356;2022-07-10T03:13:25;12.30;99.90
13638;DHT22;6892;50.916;4.356;2022-07-10T03:15:53;12.30;99.90
13638;DHT22;6892;50.916;4.356;2022-07-10T03:18:20;12.30;99.90
13638;DHT22;6892;50.916;4.356;2022-07-10T03:20:46;12.30;99.90
13638;DHT22;6892;50.916;4.356;2022-07-10T03:23:14;12.30;99.90
13638;DHT22;6892;50.916;4.356;2022-07-10T03:25:41;12.30;99.90
13638;DHT22;6892;50.916;4.356;2022-07-10T03:28:08;12.20;99.90
13638;DHT22;6892;50.916;4.356;2022-07-10T03:30:35;12.20;99.90
13638;DHT22;6892;50.916;4.356;2022-07-10T03:33:02;12.20;99.90
13638;DHT22;6892;50.916;4.356;2022-07-10T03:35:29;12.20;99.90
13638;DHT22;6892;50.916;4.356;2022-07-10T03:37:57;12.20;99.90
13638;DHT22;6892;50.916;4.356;2022-07-10T03:40:25;12.20;99.90
13638;DHT22;6892;50.916;4.356;2022-07-10T03:42:52;12.10;99.90
13638;DHT22;6892;50.916;4.356;2022-07-10T03:45:19;12.10;99.90
13638;DHT22;6892;50.916;4.356;2022-07-10T03:47:46;12.10;99.90
13638;DHT22;6892;50.916;4.356;2022-07-10T03:50:13;12.10;99.90
13638;DHT22;6892;50.916;4.356;2022-07-10T03:52:39;12.10;99.90
13638;DHT22;6892;50.916;4.356;2022-07-10T03:55:06;12.10;99.90
13638;DHT22;6892;50.916;4.356;2022-07-10T03:57:35;12.20;99.90
13638;DHT22;6892;50.916;4.356;2022-07-10T04:00:19;12.20;99.90
13638;DHT22;6892;50.916;4.356;2022-07-10T04:02:47;12.30;99.90
13638;DHT22;6892;50.916;4.356;2022-07-10T04:05:14;12.30;99.90
13638;DHT22;6892;50.916;4.356;2022-07-10T04:07:40;12.40;99.90
13638;DHT22;6892;50.916;4.356;2022-07-10T04:10:07;12.30;99.90
13638;DHT22;6892;50.916;4.356;2022-07-10T04:12:36;12.30;99.90
13638;DHT22;6892;50.916;4.356;2022-07-10T04:15:03;12.30;99.90
13638;DHT22;6892;50.916;4.356;2022-07-10T04:17:30;12.30;99.90
13638;DHT22;6892;50.916;4.356;2022-07-10T04:19:58;12.30;99.90
13638;DHT22;6892;50.916;4.356;2022-07-10T04:22:24;12.30;99.90
13638;DHT22;6892;50.916;4.356;2022-07-10T04:24:51;12.30;99.90
13638;DHT22;6892;50.916;4.356;2022-07-10T04:27:18;12.40;99.90
13638;DHT22;6892;50.916;4.356;2022-07-10T04:29:46;12.40;99.90
13638;DHT22;6892;50.916;4.356;2022-07-10T04:32:13;12.50;99.90
13638;DHT22;6892;50.916;4.356;2022-07-10T04:34:40;12.60;99.90
13638;DHT22;6892;50.916;4.356;2022-07-10T04:37:07;12.60;99.90
13638;DHT22;6892;50.916;4.356;2022-07-10T04:39:34;12.70;99.90
13638;DHT22;6892;50.916;4.356;2022-07-10T04:42:01;12.80;99.90
13638;DHT22;6892;50.916;4.356;2022-07-10T04:44:28;12.80;99.90
13638;DHT22;6892;50.916;4.356;2022-07-10T04:46:57;12.90;99.90
13638;DHT22;6892;50.916;4.356;2022-07-10T04:49:24;13.00;99.90
13638;DHT22;6892;50.916;4.356;2022-07-10T04:51:50;13.00;99.90
13638;DHT22;6892;50.916;4.356;2022-07-10T04:54:17;13.10;99.90
13638;DHT22;6892;50.916;4.356;2022-07-10T04:56:44;13.20;99.90
13638;DHT22;6892;50.916;4.356;2022-07-10T04:59:11;14.00;99.90
13638;DHT22;6892;50.916;4.356;2022-07-10T05:01:38;14.90;99.90
13638;DHT22;6892;50.916;4.356;2022-07-10T05:04:06;15.90;1.00
13638;DHT22;6892;50.916;4.356;2022-07-10T05:06:33;16.50;1.00
13638;DHT22;6892;50.916;4.356;2022-07-10T05:09:00;17.00;1.00
13638;DHT22;6892;50.916;4.356;2022-07-10T05:11:27;16.80;1.00
13638;DHT22;6892;50.916;4.356;2022-07-10T05:13:54;16.30;1.00
13638;DHT22;6892;50.916;4.356;2022-07-10T05:16:21;16.00;1.00
13638;DHT22;6892;50.916;4.356;2022-07-10T05:18:48;16.50;1.00
13638;DHT22;6892;50.916;4.356;2022-07-10T05:21:16;17.00;1.00
13638;DHT22;6892;50.916;4.356;2022-07-10T05:23:43;17.50;1.00
13638;DHT22;6892;50.916;4.356;2022-07-10T05:26:10;18.10;1.00
13638;DHT22;6892;50.916;4.356;2022-07-10T05:28:36;18.40;1.00
13638;DHT22;6892;50.916;4.356;2022-07-10T05:31:03;18.70;1.00
13638;DHT22;6892;50.916;4.356;2022-07-10T05:33:30;19.20;1.00
13638;DHT22;6892;50.916;4.356;2022-07-10T05:35:58;19.50;1.00
13638;DHT22;6892;50.916;4.356;2022-07-10T05:38:26;18.80;1.00
13638;DHT22;6892;50.916;4.356;2022-07-10T05:40:52;18.10;1.00
13638;DHT22;6892;50.916;4.356;2022-07-10T05:43:19;17.50;1.00
13638;DHT22;6892;50.916;4.356;2022-07-10T05:45:46;16.90;1.00
13638;DHT22;6892;50.916;4.356;2022-07-10T05:48:13;16.80;1.00
13638;DHT22;6892;50.916;4.356;2022-07-10T05:50:40;16.60;1.00
13638;DHT22;6892;50.916;4.356;2022-07-10T05:53:06;16.60;1.00
13638;DHT22;6892;50.916;4.356;2022-07-10T05:55:34;16.70;1.00
13638;DHT22;6892;50.916;4.356;2022-07-10T05:58:01;16.70;1.00
13638;DHT22;6892;50.916;4.356;2022-07-10T06:00:29;16.50;1.00
13638;DHT22;6892;50.916;4.356;2022-07-10T06:02:56;16.40;1.00
13638;DHT22;6892;50.916;4.356;2022-07-10T06:05:22;16.40;1.00
13638;DHT22;6892;50.916;4.356;2022-07-10T06:07:49;16.40;1.00
13638;DHT22;6892;50.916;4.356;2022-07-10T06:10:16;16.50;1.00
13638;DHT22;6892;50.916;4.356;2022-07-10T06:12:44;16.50;1.00
13638;DHT22;6892;50.916;4.356;2022-07-10T06:15:11;16.40;1.00
13638;DHT22;6892;50.916;4.356;2022-07-10T06:17:38;16.30;1.00
13638;DHT22;6892;50.916;4.356;2022-07-10T06:20:05;16.50;1.00
13638;DHT22;6892;50.916;4.356;2022-07-10T06:22:32;16.70;1.00
13638;DHT22;6892;50.916;4.356;2022-07-10T06:24:59;17.00;1.00
13638;DHT22;6892;50.916;4.356;2022-07-10T06:27:26;17.00;1.00
13638;DHT22;6892;50.916;4.356;2022-07-10T06:29:55;17.00;1.00
13638;DHT22;6892;50.916;4.356;2022-07-10T06:32:22;16.80;1.00
13638;DHT22;6892;50.916;4.356;2022-07-10T06:34:49;17.00;1.00
13638;DHT22;6892;50.916;4.356;2022-07-10T06:37:16;16.90;1.00
13638;DHT22;6892;50.916;4.356;2022-07-10T06:39:43;17.00;1.00
13638;DHT22;6892;50.916;4.356;2022-07-10T06:42:10;17.20;1.00
13638;DHT22;6892;50.916;4.356;2022-07-10T06:44:37;17.30;1.00
13638;DHT22;6892;50.916;4.356;2022-07-10T06:47:05;17.20;1.00
13638;DHT22;6892;50.916;4.356;2022-07-10T06:50:02;17.10;1.00
13638;DHT22;6892;50.916;4.356;2022-07-10T06:52:30;17.20;1.00
13638;DHT22;6892;50.916;4.356;2022-07-10T06:54:57;17.40;1.00
13638;DHT22;6892;50.916;4.356;2022-07-10T06:57:24;17.50;1.00
13638;DHT22;6892;50.916;4.356;2022-07-10T06:59:51;17.50;1.00
13638;DHT22;6892;50.916;4.356;2022-07-10T07:02:19;17.50;1.00
13638;DHT22;6892;50.916;4.356;2022-07-10T07:04:46;17.40;1.00
13638;DHT22;6892;50.916;4.356;2022-07-10T07:07:13;17.10;1.00
13638;DHT22;6892;50.916;4.356;2022-07-10T07:09:40;17.20;1.00
13638;DHT22;6892;50.916;4.356;2022-07-10T07:12:08;17.30;1.00
13638;DHT22;6892;50.916;4.356;2022-07-10T07:14:34;17.20;1.00
13638;DHT22;6892;50.916;4.356;2022-07-10T07:17:01;17.50;1.00
13638;DHT22;6892;50.916;4.356;2022-07-10T07:19:33;17.50;1.00
13638;DHT22;6892;50.916;4.356;2022-07-10T07:22:22;17.20;1.00
13638;DHT22;6892;50.916;4.356;2022-07-10T07:25:07;17.10;1.00
13638;DHT22;6892;50.916;4.356;2022-07-10T07:27:35;17.40;1.00
13638;DHT22;6892;50.916;4.356;2022-07-10T07:30:03;17.70;1.00
13638;DHT22;6892;50.916;4.356;2022-07-10T07:32:30;17.90;1.00
13638;DHT22;6892;50.916;4.356;2022-07-10T07:34:58;18.00;1.00
13638;DHT22;6892;50.916;4.356;2022-07-10T07:37:34;18.30;1.00
13638;DHT22;6892;50.916;4.356;2022-07-10T07:40:01;18.40;1.00
13638;DHT22;6892;50.916;4.356;2022-07-10T07:42:27;18.70;1.00
13638;DHT22;6892;50.916;4.356;2022-07-10T07:44:54;18.20;1.00
13638;DHT22;6892;50.916;4.356;2022-07-10T07:47:21;18.60;1.00
13638;DHT22;6892;50.916;4.356;2022-07-10T07:49:48;19.10;1.00
13638;DHT22;6892;50.916;4.356;2022-07-10T07:52:16;18.80;1.00
13638;DHT22;6892;50.916;4.356;2022-07-10T07:54:43;18.90;1.00
13638;DHT22;6892;50.916;4.356;2022-07-10T07:57:10;19.30;1.00
13638;DHT22;6892;50.916;4.356;2022-07-10T07:59:37;19.00;1.00
13638;DHT22;6892;50.916;4.356;2022-07-10T08:02:05;19.10;1.00
13638;DHT22;6892;50.916;4.356;2022-07-10T08:04:31;19.00;1.00
13638;DHT22;6892;50.916;4.356;2022-07-10T08:06:58;19.30;1.00
13638;DHT22;6892;50.916;4.356;2022-07-10T08:09:28;19.60;1.00
13638;DHT22;6892;50.916;4.356;2022-07-10T08:11:54;19.60;1.00
13638;DHT22;6892;50.916;4.356;2022-07-10T08:14:21;19.40;1.00
13638;DHT22;6892;50.916;4.356;2022-07-10T08:16:48;19.90;1.00
13638;DHT22;6892;50.916;4.356;2022-07-10T08:19:16;19.70;1.00
13638;DHT22;6892;50.916;4.356;2022-07-10T08:21:42;19.50;3.80
13638;DHT22;6892;50.916;4.356;2022-07-10T08:24:09;19.00;1.00
13638;DHT22;6892;50.916;4.356;2022-07-10T08:26:37;19.10;1.00
13638;DHT22;6892;50.916;4.356;2022-07-10T08:29:04;18.80;1.00
13638;DHT22;6892;50.916;4.356;2022-07-10T08:31:31;19.10;1.00
13638;DHT22;6892;50.916;4.356;2022-07-10T08:33:58;19.20;1.00
13638;DHT22;6892;50.916;4.356;2022-07-10T08:36:25;19.20;1.00
13638;DHT22;6892;50.916;4.356;2022-07-10T08:38:51;19.60;1.00
13638;DHT22;6892;50.916;4.356;2022-07-10T08:41:20;19.60;4.00
13638;DHT22;6892;50.916;4.356;2022-07-10T08:43:50;20.40;21.70
13638;DHT22;6892;50.916;4.356;2022-07-10T08:46:17;20.40;99.90
13638;DHT22;6892;50.916;4.356;2022-07-10T08:48:44;20.70;99.90
13638;DHT22;6892;50.916;4.356;2022-07-10T08:51:14;19.90;99.90
13638;DHT22;6892;50.916;4.356;2022-07-10T08:53:42;20.10;99.90
13638;DHT22;6892;50.916;4.356;2022-07-10T08:56:09;20.20;99.90
13638;DHT22;6892;50.916;4.356;2022-07-10T08:58:36;20.60;99.90
13638;DHT22;6892;50.916;4.356;2022-07-10T09:01:05;20.80;99.90
13638;DHT22;6892;50.916;4.356;2022-07-10T09:03:32;20.70;99.90
13638;DHT22;6892;50.916;4.356;2022-07-10T09:05:58;21.00;99.90
13638;DHT22;6892;50.916;4.356;2022-07-10T09:08:26;20.60;99.90
13638;DHT22;6892;50.916;4.356;2022-07-10T09:13:40;20.00;99.90
13638;DHT22;6892;50.916;4.356;2022-07-10T09:16:21;20.20;99.90
13638;DHT22;6892;50.916;4.356;2022-07-10T09:18:48;20.80;99.90
13638;DHT22;6892;50.916;4.356;2022-07-10T09:21:14;21.20;99.90
13638;DHT22;6892;50.916;4.356;2022-07-10T09:23:41;20.70;99.90
13638;DHT22;6892;50.916;4.356;2022-07-10T09:26:08;20.50;99.90
13638;DHT22;6892;50.916;4.356;2022-07-10T09:28:35;20.60;99.90
13638;DHT22;6892;50.916;4.356;2022-07-10T09:31:02;20.90;99.90
13638;DHT22;6892;50.916;4.356;2022-07-10T09:33:30;20.70;99.90
13638;DHT22;6892;50.916;4.356;2022-07-10T09:35:59;20.80;99.90
13638;DHT22;6892;50.916;4.356;2022-07-10T09:38:51;21.00;99.90
13638;DHT22;6892;50.916;4.356;2022-07-10T09:41:20;21.60;99.90
13638;DHT22;6892;50.916;4.356;2022-07-10T09:43:49;21.60;99.90
13638;DHT22;6892;50.916;4.356;2022-07-10T09:46:16;21.60;99.90
13638;DHT22;6892;50.916;4.356;2022-07-10T09:48:45;21.60;99.90
13638;DHT22;6892;50.916;4.356;2022-07-10T09:51:11;21.90;99.90
13638;DHT22;6892;50.916;4.356;2022-07-10T09:53:39;22.00;99.90
13638;DHT22;6892;50.916;4.356;2022-07-10T09:56:06;22.20;99.90
13638;DHT22;6892;50.916;4.356;2022-07-10T09:58:34;21.60;99.90
13638;DHT22;6892;50.916;4.356;2022-07-10T10:01:02;21.50;99.90
13638;DHT22;6892;50.916;4.356;2022-07-10T10:03:30;21.40;99.90
13638;DHT22;6892;50.916;4.356;2022-07-10T10:06:03;21.40;99.90
13638;DHT22;6892;50.916;4.356;2022-07-10T10:08:35;21.70;99.90
13638;DHT22;6892;50.916;4.356;2022-07-10T10:11:04;21.90;99.90
13638;DHT22;6892;50.916;4.356;2022-07-10T10:13:35;22.10;99.90
13638;DHT22;6892;50.916;4.356;2022-07-10T10:16:02;22.40;99.90
13638;DHT22;6892;50.916;4.356;2022-07-10T10:18:35;22.70;99.90
13638;DHT22;6892;50.916;4.356;2022-07-10T10:21:24;22.80;99.90
13638;DHT22;6892;50.916;4.356;2022-07-10T10:23:52;22.00;99.90
13638;DHT22;6892;50.916;4.356;2022-07-10T10:26:20;21.70;99.90
13638;DHT22;6892;50.916;4.356;2022-07-10T10:28:47;21.50;99.90
13638;DHT22;6892;50.916;4.356;2022-07-10T10:31:16;21.60;99.90
13638;DHT22;6892;50.916;4.356;2022-07-10T10:33:50;21.80;99.90
13638;DHT22;6892;50.916;4.356;2022-07-10T10:39:18;21.70;99.90
13638;DHT22;6892;50.916;4.356;2022-07-10T10:41:49;21.40;99.90
13638;DHT22;6892;50.916;4.356;2022-07-10T10:44:19;21.50;99.90
13638;DHT22;6892;50.916;4.356;2022-07-10T10:46:53;21.60;99.90
13638;DHT22;6892;50.916;4.356;2022-07-10T10:49:22;22.10;99.90
13638;DHT22;6892;50.916;4.356;2022-07-10T10:51:56;22.20;99.90
13638;DHT22;6892;50.916;4.356;2022-07-10T10:54:25;22.10;99.90
13638;DHT22;6892;50.916;4.356;2022-07-10T10:59:44;22.10;99.90
13638;DHT22;6892;50.916;4.356;2022-07-10T11:02:20;22.20;99.90
13638;DHT22;6892;50.916;4.356;2022-07-10T11:04:48;22.00;99.90
13638;DHT22;6892;50.916;4.356;2022-07-10T11:15:22;22.00;99.90
13638;DHT22;6892;50.916;4.356;2022-07-10T11:17:49;22.40;99.90
13638;DHT22;6892;50.916;4.356;2022-07-10T11:20:16;22.30;99.90
13638;DHT22;6892;50.916;4.356;2022-07-10T11:22:49;22.30;99.90
13638;DHT22;6892;50.916;4.356;2022-07-10T11:25:22;22.50;99.90
13638;DHT22;6892;50.916;4.356;2022-07-10T11:28:00;23.10;99.90
13638;DHT22;6892;50.916;4.356;2022-07-10T11:30:43;23.20;99.90
13638;DHT22;6892;50.916;4.356;2022-07-10T11:33:10;23.10;99.90
13638;DHT22;6892;50.916;4.356;2022-07-10T11:35:38;23.30;99.90
13638;DHT22;6892;50.916;4.356;2022-07-10T11:38:05;22.80;99.90
13638;DHT22;6892;50.916;4.356;2022-07-10T11:40:34;22.90;99.90
13638;DHT22;6892;50.916;4.356;2022-07-10T11:43:01;23.00;99.90
13638;DHT22;6892;50.916;4.356;2022-07-10T11:45:31;23.00;99.90
13638;DHT22;6892;50.916;4.356;2022-07-10T11:48:00;22.60;99.90
13638;DHT22;6892;50.916;4.356;2022-07-10T11:50:27;22.50;99.90
13638;DHT22;6892;50.916;4.356;2022-07-10T11:52:53;22.80;99.90
13638;DHT22;6892;50.916;4.356;2022-07-10T11:55:21;22.60;99.90
13638;DHT22;6892;50.916;4.356;2022-07-10T11:57:48;22.70;99.90
13638;DHT22;6892;50.916;4.356;2022-07-10T12:00:21;22.90;99.90
13638;DHT22;6892;50.916;4.356;2022-07-10T12:02:49;23.30;99.90
13638;DHT22;6892;50.916;4.356;2022-07-10T12:08:00;22.80;99.90
13638;DHT22;6892;50.916;4.356;2022-07-10T12:10:27;23.30;99.90
13638;DHT22;6892;50.916;4.356;2022-07-10T12:13:02;23.30;99.90
13638;DHT22;6892;50.916;4.356;2022-07-10T12:15:32;23.00;99.90
13638;DHT22;6892;50.916;4.356;2022-07-10T12:17:59;22.80;99.90
13638;DHT22;6892;50.916;4.356;2022-07-10T12:20:26;22.70;99.90
13638;DHT22;6892;50.916;4.356;2022-07-10T12:22:53;23.00;99.90
13638;DHT22;6892;50.916;4.356;2022-07-10T12:25:22;22.70;99.90
13638;DHT22;6892;50.916;4.356;2022-07-10T12:27:54;22.40;99.90
13638;DHT22;6892;50.916;4.356;2022-07-10T12:30:21;22.50;99.90
13638;DHT22;6892;50.916;4.356;2022-07-10T12:32:48;22.70;99.90
13638;DHT22;6892;50.916;4.356;2022-07-10T12:35:14;22.80;99.90
13638;DHT22;6892;50.916;4.356;2022-07-10T12:37:47;23.00;99.90
13638;DHT22;6892;50.916;4.356;2022-07-10T12:43:04;22.90;99.90
13638;DHT22;6892;50.916;4.356;2022-07-10T12:45:31;22.70;99.90
13638;DHT22;6892;50.916;4.356;2022-07-10T12:47:58;22.80;99.90
13638;DHT22;6892;50.916;4.356;2022-07-10T12:50:25;22.60;99.90
13638;DHT22;6892;50.916;4.356;2022-07-10T12:53:06;22.80;99.90
13638;DHT22;6892;50.916;4.356;2022-07-10T12:55:37;22.90;99.90
13638;DHT22;6892;50.916;4.356;2022-07-10T12:58:06;23.40;99.90
13638;DHT22;6892;50.916;4.356;2022-07-10T13:00:35;23.10;99.90
13638;DHT22;6892;50.916;4.356;2022-07-10T13:03:02;23.20;99.90
13638;DHT22;6892;50.916;4.356;2022-07-10T13:05:30;22.80;99.90
13638;DHT22;6892;50.916;4.356;2022-07-10T13:08:04;22.20;99.90
13638;DHT22;6892;50.916;4.356;2022-07-10T13:10:32;22.50;99.90
13638;DHT22;6892;50.916;4.356;2022-07-10T13:12:59;22.60;99.90
13638;DHT22;6892;50.916;4.356;2022-07-10T13:15:27;22.90;99.90
13638;DHT22;6892;50.916;4.356;2022-07-10T13:17:54;23.10;99.90
13638;DHT22;6892;50.916;4.356;2022-07-10T13:20:21;23.10;99.90
13638;DHT22;6892;50.916;4.356;2022-07-10T13:22:48;23.40;99.90
13638;DHT22;6892;50.916;4.356;2022-07-10T13:25:15;23.90;99.90
13638;DHT22;6892;50.916;4.356;2022-07-10T13:27:42;24.20;99.90
13638;DHT22;6892;50.916;4.356;2022-07-10T13:30:09;23.70;99.90
13638;DHT22;6892;50.916;4.356;2022-07-10T13:32:38;23.10;99.90
13638;DHT22;6892;50.916;4.356;2022-07-10T13:35:05;23.30;99.90
13638;DHT22;6892;50.916;4.356;2022-07-10T13:37:32;23.50;99.90
13638;DHT22;6892;50.916;4.356;2022-07-10T13:39:59;23.20;99.90
13638;DHT22;6892;50.916;4.356;2022-07-10T13:42:26;23.40;99.90
13638;DHT22;6892;50.916;4.356;2022-07-10T13:44:52;23.70;99.90
13638;DHT22;6892;50.916;4.356;2022-07-10T13:47:20;24.10;99.90
13638;DHT22;6892;50.916;4.356;2022-07-10T13:49:48;24.90;99.90
13638;DHT22;6892;50.916;4.356;2022-07-10T13:52:15;25.30;99.90
13638;DHT22;6892;50.916;4.356;2022-07-10T13:54:42;24.50;99.90
13638;DHT22;6892;50.916;4.356;2022-07-10T13:57:09;24.30;99.90
13638;DHT22;6892;50.916;4.356;2022-07-10T13:59:36;23.90;99.90
13638;DHT22;6892;50.916;4.356;2022-07-10T14:02:03;24.40;99.90
13638;DHT22;6892;50.916;4.356;2022-07-10T14:04:30;25.00;99.90
13638;DHT22;6892;50.916;4.356;2022-07-10T14:06:58;24.60;99.90
13638;DHT22;6892;50.916;4.356;2022-07-10T14:09:24;24.40;99.90
13638;DHT22;6892;50.916;4.356;2022-07-10T14:11:52;24.00;99.90
13638;DHT22;6892;50.916;4.356;2022-07-10T14:14:19;24.40;99.90
13638;DHT22;6892;50.916;4.356;2022-07-10T14:16:47;25.40;99.90
13638;DHT22;6892;50.916;4.356;2022-07-10T14:19:14;25.00;99.90
13638;DHT22;6892;50.916;4.356;2022-07-10T14:21:41;24.60;99.90
13638;DHT22;6892;50.916;4.356;2022-07-10T14:24:10;24.60;99.90
13638;DHT22;6892;50.916;4.356;2022-07-10T14:26:37;24.50;99.90
13638;DHT22;6892;50.916;4.356;2022-07-10T14:29:03;25.10;99.90
13638;DHT22;6892;50.916;4.356;2022-07-10T14:31:30;25.40;99.90
13638;DHT22;6892;50.916;4.356;2022-07-10T14:33:57;25.00;99.90
13638;DHT22;6892;50.916;4.356;2022-07-10T14:36:24;24.00;99.90
13638;DHT22;6892;50.916;4.356;2022-07-10T14:38:52;24.10;99.90
13638;DHT22;6892;50.916;4.356;2022-07-10T14:41:20;24.30;99.90
13638;DHT22;6892;50.916;4.356;2022-07-10T14:43:47;24.70;99.90
13638;DHT22;6892;50.916;4.356;2022-07-10T14:46:14;24.00;99.90
13638;DHT22;6892;50.916;4.356;2022-07-10T14:48:40;24.40;99.90
13638;DHT22;6892;50.916;4.356;2022-07-10T14:51:07;24.20;99.90
13638;DHT22;6892;50.916;4.356;2022-07-10T14:53:34;23.60;99.90
13638;DHT22;6892;50.916;4.356;2022-07-10T14:56:01;23.90;99.90
13638;DHT22;6892;50.916;4.356;2022-07-10T14:58:30;25.00;99.90
13638;DHT22;6892;50.916;4.356;2022-07-10T15:00:56;25.20;99.90
13638;DHT22;6892;50.916;4.356;2022-07-10T15:03:23;25.30;99.90
13638;DHT22;6892;50.916;4.356;2022-07-10T15:05:50;24.30;99.90
13638;DHT22;6892;50.916;4.356;2022-07-10T15:08:18;24.00;99.90
13638;DHT22;6892;50.916;4.356;2022-07-10T15:10:45;24.50;99.90
13638;DHT22;6892;50.916;4.356;2022-07-10T15:13:12;24.50;99.90
13638;DHT22;6892;50.916;4.356;2022-07-10T15:15:40;24.00;99.90
13638;DHT22;6892;50.916;4.356;2022-07-10T15:18:07;23.70;99.90
13638;DHT22;6892;50.916;4.356;2022-07-10T15:20:34;23.50;99.90
13638;DHT22;6892;50.916;4.356;2022-07-10T15:23:02;24.00;99.90
13638;DHT22;6892;50.916;4.356;2022-07-10T15:25:29;24.50;99.90
13638;DHT22;6892;50.916;4.356;2022-07-10T15:27:56;24.60;99.90
13638;DHT22;6892;50.916;4.356;2022-07-10T15:30:22;24.20;99.90
13638;DHT22;6892;50.916;4.356;2022-07-10T15:32:51;24.10;99.90
13638;DHT22;6892;50.916;4.356;2022-07-10T15:35:19;24.20;99.90
13638;DHT22;6892;50.916;4.356;2022-07-10T15:37:46;24.30;99.90
13638;DHT22;6892;50.916;4.356;2022-07-10T15:40:13;24.90;99.90
13638;DHT22;6892;50.916;4.356;2022-07-10T15:42:40;24.80;99.90
13638;DHT22;6892;50.916;4.356;2022-07-10T15:45:07;25.00;99.90
13638;DHT22;6892;50.916;4.356;2022-07-10T15:47:33;25.20;99.90
13638;DHT22;6892;50.916;4.356;2022-07-10T15:50:02;24.60;99.90
13638;DHT22;6892;50.916;4.356;2022-07-10T15:52:29;24.00;99.90
13638;DHT22;6892;50.916;4.356;2022-07-10T15:54:56;24.30;99.90
13638;DHT22;6892;50.916;4.356;2022-07-10T15:57:22;24.30;99.90
13638;DHT22;6892;50.916;4.356;2022-07-10T15:59:49;24.50;99.90
13638;DHT22;6892;50.916;4.356;2022-07-10T16:02:16;24.80;99.90
13638;DHT22;6892;50.916;4.356;2022-07-10T16:04:42;25.00;99.90
13638;DHT22;6892;50.916;4.356;2022-07-10T16:07:11;24.60;99.90
13638;DHT22;6892;50.916;4.356;2022-07-10T16:09:38;24.30;99.90
13638;DHT22;6892;50.916;4.356;2022-07-10T16:12:05;23.70;99.90
13638;DHT22;6892;50.916;4.356;2022-07-10T16:14:33;23.80;99.90
13638;DHT22;6892;50.916;4.356;2022-07-10T16:17:00;24.00;99.90